createdAt,value
2023-01-30T00:01:40.176Z,10.00
2023-01-30T00:04:13.890Z,9.70
2023-01-30T00:06:47.440Z,9.98
2023-01-30T00:09:19.267Z,9.80
2023-01-30T00:11:51.145Z,9.30
2023-01-30T00:14:23.001Z,9.15
2023-01-30T00:16:54.872Z,9.25
2023-01-30T00:19:26.704Z,9.65
2023-01-30T00:21:58.524Z,10.40
2023-01-30T00:24:30.634Z,10.48
2023-01-30T00:27:02.524Z,9.95
2023-01-30T00:29:34.394Z,10.40
2023-01-30T00:32:07.235Z,9.75
2023-01-30T00:34:39.116Z,9.30
2023-01-30T00:37:10.959Z,9.02
2023-01-30T00:39:42.845Z,9.45
2023-01-30T00:42:33.075Z,9.35
2023-01-30T00:45:23.876Z,8.85
2023-01-30T00:47:56.044Z,8.73
2023-01-30T00:50:42.466Z,9.23
2023-01-30T00:53:17.339Z,8.93
2023-01-30T00:55:51.872Z,9.23
2023-01-30T00:58:24.599Z,9.35
2023-01-30T01:00:56.540Z,9.07
2023-01-30T01:03:28.564Z,8.65
2023-01-30T01:06:00.840Z,8.88
2023-01-30T01:08:32.787Z,9.05
2023-01-30T01:11:04.820Z,9.57
2023-01-30T01:13:36.758Z,9.57
2023-01-30T01:16:08.835Z,10.18
2023-01-30T01:18:40.768Z,9.30
2023-01-30T01:21:13.486Z,8.68
2023-01-30T01:23:49.257Z,8.43
2023-01-30T01:26:21.424Z,8.73
2023-01-30T01:28:57.519Z,8.40
2023-01-30T01:31:29.561Z,8.50
2023-01-30T01:34:01.500Z,8.40
2023-01-30T01:36:52.886Z,9.75
2023-01-30T01:42:18.489Z,8.95
2023-01-30T01:45:15.443Z,8.48
2023-01-30T01:47:58.931Z,8.77
2023-01-30T01:51:03.852Z,8.38
2023-01-30T01:53:42.375Z,8.40
2023-01-30T01:56:17.063Z,8.48
2023-01-30T01:58:55.457Z,7.85
2023-01-30T02:01:28.854Z,8.45
2023-01-30T02:04:04.559Z,8.75
2023-01-30T02:06:39.791Z,8.45
2023-01-30T02:09:11.968Z,8.10
2023-01-30T02:11:58.113Z,8.63
2023-01-30T02:14:33.245Z,8.85
2023-01-30T02:17:05.207Z,9.55
2023-01-30T02:19:46.970Z,10.02
2023-01-30T02:22:54.346Z,7.28
2023-01-30T02:25:41.447Z,8.27
2023-01-30T02:28:32.043Z,8.70
2023-01-30T02:31:39.332Z,8.23
2023-01-30T02:34:17.568Z,7.82
2023-01-30T02:37:24.659Z,8.57
2023-01-30T02:40:25.974Z,7.50
2023-01-30T02:43:17.928Z,8.02
2023-01-30T02:46:08.867Z,8.10
2023-01-30T02:49:00.889Z,8.67
2023-01-30T02:51:37.013Z,8.65
2023-01-30T02:54:12.498Z,9.05
2023-01-30T02:56:53.704Z,8.73
2023-01-30T02:59:32.173Z,8.55
2023-01-30T03:02:25.713Z,8.98
2023-01-30T03:05:13.223Z,8.38
2023-01-30T03:08:04.768Z,9.57
2023-01-30T03:10:57.061Z,7.97
2023-01-30T03:13:52.277Z,7.82
2023-01-30T03:16:40.125Z,7.47
2023-01-30T03:19:13.686Z,7.47
2023-01-30T03:21:45.726Z,7.28
2023-01-30T03:24:18.311Z,7.13
2023-01-30T03:26:58.477Z,7.88
2023-01-30T03:29:31.154Z,5.90
2023-01-30T03:32:03.146Z,7.88
2023-01-30T03:34:35.319Z,7.20
2023-01-30T03:37:07.302Z,7.30
2023-01-30T03:39:40.923Z,7.63
2023-01-30T03:42:13.175Z,7.85
2023-01-30T03:44:45.087Z,7.85
2023-01-30T03:47:17.004Z,6.88
2023-01-30T03:49:48.916Z,7.70
2023-01-30T03:52:20.996Z,8.15
2023-01-30T03:54:52.930Z,8.25
2023-01-30T03:57:25.199Z,8.40
2023-01-30T03:59:57.184Z,8.70
2023-01-30T04:02:29.098Z,8.27
2023-01-30T04:05:03.838Z,9.10
2023-01-30T04:07:35.838Z,8.88
2023-01-30T04:10:08.277Z,8.15
2023-01-30T04:12:40.186Z,8.60
2023-01-30T04:15:12.521Z,8.50
2023-01-30T04:17:53.154Z,6.63
2023-01-30T04:20:54.049Z,5.95
2023-01-30T04:23:33.635Z,8.27
2023-01-30T04:26:06.548Z,8.13
2023-01-30T04:28:42.328Z,8.00
2023-01-30T04:31:14.550Z,8.50
2023-01-30T04:34:09.781Z,8.18
2023-01-30T04:36:41.866Z,8.85
2023-01-30T04:39:14.409Z,8.35
2023-01-30T04:41:46.366Z,8.93
2023-01-30T04:44:18.215Z,8.90
2023-01-30T04:46:54.406Z,8.75
2023-01-30T04:49:27.141Z,8.45
2023-01-30T04:51:59.627Z,9.00
2023-01-30T04:54:31.784Z,9.07
2023-01-30T04:57:04.397Z,9.15
2023-01-30T04:59:36.444Z,9.27
2023-01-30T05:02:13.438Z,9.20
2023-01-30T05:04:45.324Z,9.20
2023-01-30T05:07:17.247Z,9.38
2023-01-30T05:09:49.178Z,10.18
2023-01-30T05:12:20.979Z,10.30
2023-01-30T05:14:52.841Z,9.52
2023-01-30T05:17:24.692Z,9.60
2023-01-30T05:19:56.625Z,9.18
2023-01-30T05:22:28.503Z,9.30
2023-01-30T05:25:00.392Z,8.98
2023-01-30T05:27:32.298Z,9.32
2023-01-30T05:30:05.995Z,9.27
2023-01-30T05:32:37.913Z,8.88
2023-01-30T05:35:10.224Z,8.40
2023-01-30T05:37:42.090Z,9.35
2023-01-30T05:40:14.323Z,13.35
2023-01-30T05:42:46.257Z,17.60
2023-01-30T05:45:18.390Z,16.50
2023-01-30T05:47:53.595Z,12.40
2023-01-30T05:50:26.843Z,10.75
2023-01-30T05:52:58.786Z,9.38
2023-01-30T05:55:30.716Z,9.85
2023-01-30T05:58:02.543Z,8.30
2023-01-30T06:00:34.378Z,8.90
2023-01-30T06:03:06.264Z,8.95
2023-01-30T06:05:38.489Z,8.38
2023-01-30T06:08:10.378Z,9.57
2023-01-30T06:10:42.303Z,8.68
2023-01-30T06:13:14.225Z,9.18
2023-01-30T06:15:46.319Z,9.13
2023-01-30T06:18:18.286Z,9.85
2023-01-30T06:20:51.243Z,9.18
2023-01-30T06:23:27.070Z,9.20
2023-01-30T06:25:59.004Z,10.35
2023-01-30T06:28:30.837Z,10.05
2023-01-30T06:31:02.892Z,10.48
2023-01-30T06:33:35.360Z,10.23
2023-01-30T06:36:07.706Z,10.95
2023-01-30T06:38:39.625Z,11.10
2023-01-30T06:41:11.544Z,10.65
2023-01-30T06:43:43.418Z,10.50
2023-01-30T06:46:15.346Z,10.80
2023-01-30T06:48:47.637Z,10.32
2023-01-30T06:51:19.544Z,11.52
2023-01-30T06:53:53.326Z,9.95
2023-01-30T06:56:25.247Z,10.65
2023-01-30T06:58:57.200Z,11.73
2023-01-30T07:01:29.192Z,10.95
2023-01-30T07:04:01.087Z,32.05
2023-01-30T07:06:33.092Z,12.65
2023-01-30T07:09:05.036Z,10.82
2023-01-30T07:11:36.885Z,10.15
2023-01-30T07:14:09.909Z,10.55
2023-01-30T07:16:41.823Z,10.30
2023-01-30T07:19:13.729Z,11.98
2023-01-30T07:21:45.570Z,10.32
2023-01-30T07:24:17.462Z,9.65
2023-01-30T07:26:49.440Z,11.35
2023-01-30T07:29:21.407Z,11.43
2023-01-30T07:31:53.811Z,10.48
2023-01-30T07:34:25.698Z,10.10
2023-01-30T07:36:57.689Z,10.32
2023-01-30T07:39:29.670Z,9.52
2023-01-30T07:42:02.347Z,9.63
2023-01-30T07:44:34.343Z,10.13
2023-01-30T07:47:06.383Z,10.27
2023-01-30T07:49:38.365Z,10.15
2023-01-30T07:52:10.275Z,10.40
2023-01-30T07:54:42.234Z,11.02
2023-01-30T07:57:16.202Z,10.15
2023-01-30T07:59:48.097Z,10.98
2023-01-30T08:02:19.931Z,10.75
2023-01-30T08:04:51.955Z,11.98
2023-01-30T08:07:23.945Z,11.13
2023-01-30T08:09:55.893Z,11.85
2023-01-30T08:12:27.845Z,11.15
2023-01-30T08:14:59.706Z,17.98
2023-01-30T08:17:31.598Z,16.48
2023-01-30T08:20:04.727Z,11.35
2023-01-30T08:22:36.662Z,11.90
2023-01-30T08:25:08.856Z,12.05
2023-01-30T08:27:40.724Z,11.90
2023-01-30T08:30:12.894Z,12.50
2023-01-30T08:32:44.918Z,12.98
2023-01-30T08:35:16.839Z,12.70
2023-01-30T08:37:48.964Z,13.82
2023-01-30T08:40:21.163Z,13.93
2023-01-30T08:42:53.147Z,13.98
2023-01-30T08:45:25.014Z,13.55
2023-01-30T08:48:00.726Z,12.43
2023-01-30T08:50:33.516Z,12.38
2023-01-30T08:53:07.278Z,13.10
2023-01-30T08:55:39.140Z,11.95
2023-01-30T08:58:11.532Z,13.15
2023-01-30T09:00:45.583Z,13.85
2023-01-30T09:03:18.820Z,13.60
2023-01-30T09:05:56.974Z,14.60
2023-01-30T09:08:29.022Z,15.40
2023-01-30T09:11:03.551Z,14.57
2023-01-30T09:13:35.457Z,14.32
2023-01-30T09:16:07.436Z,14.00
2023-01-30T09:18:44.031Z,13.05
2023-01-30T09:21:16.098Z,13.65
2023-01-30T09:23:47.932Z,13.43
2023-01-30T09:26:19.798Z,13.45
2023-01-30T09:28:51.776Z,12.57
2023-01-30T09:31:24.011Z,12.60
2023-01-30T09:33:55.853Z,12.25
2023-01-30T09:36:28.882Z,12.63
2023-01-30T09:39:00.985Z,12.50
2023-01-30T09:41:45.650Z,12.30
2023-01-30T09:44:35.383Z,11.77
2023-01-30T09:47:11.868Z,10.02
2023-01-30T09:49:52.338Z,10.70
2023-01-30T09:52:38.000Z,11.65
2023-01-30T09:55:30.184Z,11.57
2023-01-30T09:58:02.406Z,13.15
2023-01-30T10:00:42.265Z,13.73
2023-01-30T10:03:41.052Z,13.25
2023-01-30T10:06:14.728Z,13.23
2023-01-30T10:09:20.067Z,12.95
2023-01-30T10:12:00.431Z,12.70
2023-01-30T10:14:36.234Z,13.80
2023-01-30T10:17:39.480Z,13.25
2023-01-30T10:20:21.017Z,13.35
2023-01-30T10:23:04.867Z,13.48
2023-01-30T10:25:45.993Z,14.80
2023-01-30T10:28:32.953Z,13.93
2023-01-30T10:31:10.689Z,14.68
2023-01-30T10:34:03.162Z,15.43
2023-01-30T10:36:53.384Z,14.75
2023-01-30T10:39:38.759Z,14.77
2023-01-30T10:42:19.742Z,16.75
2023-01-30T10:44:59.093Z,15.98
2023-01-30T10:47:47.153Z,15.60
2023-01-30T10:50:29.546Z,15.38
2023-01-30T10:53:11.702Z,14.68
2023-01-30T10:56:02.835Z,14.98
2023-01-30T10:58:46.890Z,16.25
2023-01-30T11:01:39.823Z,16.38
2023-01-30T11:04:25.271Z,16.40
2023-01-30T11:06:58.904Z,17.67
2023-01-30T11:09:45.255Z,19.25
2023-01-30T11:12:20.147Z,18.65
2023-01-30T11:14:59.702Z,20.45
2023-01-30T11:17:38.880Z,19.38
2023-01-30T11:20:19.286Z,18.63
2023-01-30T11:23:26.597Z,20.67
2023-01-30T11:26:10.372Z,21.17
2023-01-30T11:28:48.677Z,19.85
2023-01-30T11:31:40.775Z,20.98
2023-01-30T11:34:16.627Z,21.60
2023-01-30T11:36:51.157Z,24.25
2023-01-30T11:39:28.363Z,24.27
2023-01-30T11:42:04.610Z,24.67
2023-01-30T11:44:38.173Z,25.50
2023-01-30T11:47:27.242Z,24.30
2023-01-30T11:50:03.607Z,26.05
2023-01-30T11:52:38.780Z,27.23
2023-01-30T11:55:16.430Z,27.73
2023-01-30T11:57:54.458Z,27.23
2023-01-30T12:00:39.838Z,26.80
2023-01-30T12:03:15.748Z,28.25
2023-01-30T12:05:48.735Z,28.67
2023-01-30T12:08:31.190Z,29.48
2023-01-30T12:11:47.137Z,29.00
2023-01-30T12:14:27.844Z,29.70
2023-01-30T12:17:22.257Z,29.67
2023-01-30T12:20:01.693Z,27.77
2023-01-30T12:22:51.776Z,28.55
2023-01-30T12:25:27.180Z,30.67
2023-01-30T12:28:25.902Z,29.67
2023-01-30T12:31:08.656Z,29.63
2023-01-30T12:33:40.995Z,30.23
2023-01-30T12:36:24.777Z,30.75
2023-01-30T12:38:56.851Z,31.25
2023-01-30T12:41:45.253Z,30.48
2023-01-30T12:44:25.712Z,31.45
2023-01-30T12:47:18.767Z,32.08
2023-01-30T12:50:12.217Z,31.58
2023-01-30T12:53:24.347Z,31.58
2023-01-30T12:56:14.792Z,31.20
2023-01-30T12:59:12.024Z,32.10
2023-01-30T13:02:10.213Z,30.67
2023-01-30T13:05:03.927Z,30.15
2023-01-30T13:08:06.143Z,30.67
2023-01-30T13:10:51.881Z,31.52
2023-01-30T13:14:11.732Z,32.03
2023-01-30T13:17:02.454Z,32.28
2023-01-30T13:19:52.778Z,31.30
2023-01-30T13:22:33.911Z,29.98
2023-01-30T13:27:50.791Z,26.77
2023-01-30T13:30:25.568Z,26.80
2023-01-30T13:33:01.464Z,23.10
2023-01-30T13:35:36.887Z,23.00
2023-01-30T13:38:14.489Z,22.75
2023-01-30T13:40:51.264Z,22.42
2023-01-30T13:43:41.001Z,24.95
2023-01-30T13:46:23.646Z,22.38
2023-01-30T13:49:30.772Z,23.20
2023-01-30T13:52:15.658Z,22.85
2023-01-30T13:54:59.595Z,23.55
2023-01-30T13:57:31.388Z,24.25
2023-01-30T14:00:32.546Z,23.27
2023-01-30T14:03:07.237Z,23.25
2023-01-30T14:06:03.095Z,22.52
2023-01-30T14:08:47.138Z,24.40
2023-01-30T14:11:55.812Z,22.75
2023-01-30T14:14:31.005Z,23.00
2023-01-30T14:17:16.562Z,22.60
2023-01-30T14:20:20.042Z,23.70
2023-01-30T14:22:55.867Z,22.75
2023-01-30T14:25:30.508Z,21.40
2023-01-30T14:28:05.089Z,20.52
2023-01-30T14:30:47.631Z,20.65
2023-01-30T14:33:19.492Z,21.50
2023-01-30T14:35:54.112Z,20.33
2023-01-30T14:38:27.781Z,21.70
2023-01-30T14:41:02.246Z,22.02
2023-01-30T14:43:43.249Z,22.83
2023-01-30T14:46:18.375Z,22.08
2023-01-30T14:49:10.972Z,23.05
2023-01-30T14:51:45.734Z,21.55
2023-01-30T14:54:17.747Z,22.35
2023-01-30T14:57:05.955Z,21.30
2023-01-30T15:00:15.390Z,22.05
2023-01-30T15:03:02.278Z,22.95
2023-01-30T15:05:45.035Z,22.20
2023-01-30T15:08:24.802Z,23.20
2023-01-30T15:11:05.574Z,22.73
2023-01-30T15:14:16.146Z,22.33
2023-01-30T15:17:23.098Z,26.17
2023-01-30T15:20:00.856Z,22.63
2023-01-30T15:23:07.482Z,22.73
2023-01-30T15:25:51.647Z,23.92
2023-01-30T15:29:02.298Z,25.05
2023-01-30T15:31:37.826Z,23.92
2023-01-30T15:34:20.437Z,26.65
2023-01-30T15:36:52.439Z,28.38
2023-01-30T15:39:28.071Z,30.65
2023-01-30T15:42:07.110Z,29.02
2023-01-30T15:44:48.622Z,30.60
2023-01-30T15:47:43.404Z,29.85
2023-01-30T15:50:15.584Z,28.98
2023-01-30T15:52:50.275Z,28.02
2023-01-30T15:55:33.832Z,29.77
2023-01-30T15:58:11.035Z,29.88
2023-01-30T16:01:07.960Z,31.70
2023-01-30T16:03:42.742Z,31.30
2023-01-30T16:06:34.791Z,32.88
2023-01-30T16:09:25.883Z,33.20
2023-01-30T16:12:00.099Z,32.75
2023-01-30T16:14:36.134Z,32.40
2023-01-30T16:17:13.021Z,31.60
2023-01-30T16:19:45.116Z,34.25
2023-01-30T16:22:24.398Z,32.80
2023-01-30T16:25:02.512Z,31.92
2023-01-30T16:27:40.750Z,33.58
2023-01-30T16:30:15.956Z,33.58
2023-01-30T16:32:48.328Z,33.25
2023-01-30T16:35:28.745Z,34.08
2023-01-30T16:38:02.345Z,35.15
2023-01-30T16:40:46.677Z,66.82
2023-01-30T16:43:44.434Z,42.00
2023-01-30T16:46:51.181Z,38.40
2023-01-30T16:49:27.523Z,37.28
2023-01-30T16:52:14.717Z,35.97
2023-01-30T16:54:56.210Z,34.15
2023-01-30T16:57:43.478Z,34.35
2023-01-30T17:00:29.024Z,35.25
2023-01-30T17:03:04.240Z,34.65
2023-01-30T17:05:41.222Z,35.70
2023-01-30T17:08:31.450Z,37.30
2023-01-30T17:11:03.890Z,41.65
2023-01-30T17:13:44.077Z,47.50
2023-01-30T17:16:35.041Z,44.75
2023-01-30T17:19:07.195Z,39.03
2023-01-30T17:21:49.448Z,39.80
2023-01-30T17:24:22.448Z,36.60
2023-01-30T17:27:02.743Z,35.47
2023-01-30T17:29:43.483Z,37.30
2023-01-30T17:32:16.542Z,34.00
2023-01-30T17:34:51.011Z,34.40
2023-01-30T17:37:23.135Z,36.40
2023-01-30T17:39:56.143Z,38.20
2023-01-30T17:42:28.107Z,37.13
2023-01-30T17:45:00.020Z,37.33
2023-01-30T17:47:31.985Z,38.92
2023-01-30T17:50:04.667Z,39.92
2023-01-30T17:52:36.605Z,37.83
2023-01-30T17:55:13.844Z,38.58
2023-01-30T17:57:48.687Z,38.80
2023-01-30T18:00:24.755Z,37.58
2023-01-30T18:02:56.588Z,36.03
2023-01-30T18:05:31.765Z,35.45
2023-01-30T18:08:06.243Z,38.95
2023-01-30T18:10:43.474Z,37.47
2023-01-30T18:13:16.846Z,38.03
2023-01-30T18:16:02.407Z,36.47
2023-01-30T18:18:37.659Z,37.17
2023-01-30T18:21:15.777Z,28.25
2023-01-30T18:23:48.280Z,35.70
2023-01-30T18:26:21.780Z,36.28
2023-01-30T18:28:54.292Z,38.63
2023-01-30T18:31:30.344Z,36.50
2023-01-30T18:34:02.480Z,35.10
2023-01-30T18:36:35.945Z,38.65
2023-01-30T18:39:07.907Z,37.05
2023-01-30T18:41:39.796Z,36.47
2023-01-30T18:44:11.744Z,37.53
2023-01-30T18:46:43.781Z,37.05
2023-01-30T18:49:15.774Z,36.75
2023-01-30T18:51:47.751Z,36.65
2023-01-30T18:54:19.708Z,35.92
2023-01-30T18:56:51.856Z,37.53
2023-01-30T18:59:29.351Z,36.42
2023-01-30T19:02:01.343Z,34.38
2023-01-30T19:04:33.843Z,35.08
2023-01-30T19:07:07.586Z,35.08
2023-01-30T19:09:40.572Z,34.45
2023-01-30T19:12:31.240Z,34.67
2023-01-30T19:15:03.607Z,35.17
2023-01-30T19:17:35.582Z,35.70
2023-01-30T19:20:11.004Z,34.28
2023-01-30T19:22:43.311Z,35.17
2023-01-30T19:25:15.381Z,35.42
2023-01-30T19:27:50.235Z,36.15
2023-01-30T19:30:22.371Z,35.78
2023-01-30T19:32:58.657Z,35.67
2023-01-30T19:35:30.601Z,36.20
2023-01-30T19:38:02.606Z,35.45
2023-01-30T19:40:50.239Z,38.13
2023-01-30T19:43:22.123Z,35.20
2023-01-30T19:46:00.985Z,35.92
2023-01-30T19:48:36.179Z,33.65
2023-01-30T19:51:13.709Z,35.20
2023-01-30T19:53:47.212Z,35.20
2023-01-30T19:56:22.023Z,34.50
2023-01-30T19:58:58.733Z,35.40
2023-01-30T20:01:35.444Z,34.60
2023-01-30T20:04:10.460Z,34.67
2023-01-30T20:06:46.378Z,35.28
2023-01-30T20:09:19.197Z,50.30
2023-01-30T20:11:51.325Z,40.25
2023-01-30T20:14:23.231Z,35.83
2023-01-30T20:16:55.043Z,37.75
2023-01-30T20:19:27.129Z,38.63
2023-01-30T20:21:59.676Z,37.40
2023-01-30T20:24:31.552Z,58.15
2023-01-30T20:27:04.122Z,34.33
2023-01-30T20:29:36.082Z,34.88
2023-01-30T20:32:08.069Z,36.65
2023-01-30T20:34:39.970Z,37.75
2023-01-30T20:37:14.145Z,34.17
2023-01-30T20:39:46.777Z,33.95
2023-01-30T20:42:19.840Z,35.50
2023-01-30T20:44:51.791Z,33.85
2023-01-30T20:47:23.782Z,34.33
2023-01-30T20:49:55.627Z,35.33
2023-01-30T20:52:29.531Z,34.95
2023-01-30T20:55:01.521Z,34.95
2023-01-30T20:57:33.525Z,33.58
2023-01-30T21:00:06.171Z,36.08
2023-01-30T21:03:07.600Z,40.45
2023-01-30T21:05:39.523Z,25.88
2023-01-30T21:08:12.542Z,32.83
2023-01-30T21:10:47.139Z,32.75
2023-01-30T21:13:19.416Z,33.22
2023-01-30T21:16:07.401Z,33.75
2023-01-30T21:18:41.402Z,46.03
2023-01-30T21:21:19.322Z,35.92
2023-01-30T21:23:53.862Z,33.85
2023-01-30T21:26:27.821Z,33.20
2023-01-30T21:29:03.819Z,33.72
2023-01-30T21:31:37.693Z,32.00
2023-01-30T21:34:10.887Z,32.60
2023-01-30T21:36:42.834Z,33.35
2023-01-30T21:39:33.181Z,32.22
2023-01-30T21:42:23.975Z,32.50
2023-01-30T21:45:05.720Z,35.72
2023-01-30T21:47:44.146Z,34.92
2023-01-30T21:50:17.193Z,34.58
2023-01-30T21:52:49.080Z,36.78
2023-01-30T21:55:21.286Z,36.70
2023-01-30T21:57:53.711Z,35.60
2023-01-30T22:00:25.497Z,31.95
2023-01-30T22:02:57.361Z,31.58
2023-01-30T22:05:36.487Z,36.92
2023-01-30T22:08:08.622Z,43.70
2023-01-30T22:10:40.440Z,43.30
2023-01-30T22:13:12.396Z,35.30
2023-01-30T22:15:55.492Z,34.17
2023-01-30T22:19:00.646Z,32.50
2023-01-30T22:21:36.200Z,32.40
2023-01-30T22:24:11.267Z,32.92
2023-01-30T22:26:43.193Z,33.15
2023-01-30T22:29:18.126Z,34.65
2023-01-30T22:31:50.109Z,34.10
2023-01-30T22:34:22.084Z,34.60
2023-01-30T22:36:54.343Z,34.90
2023-01-30T22:39:26.348Z,34.25
2023-01-30T22:41:58.240Z,35.10
2023-01-30T22:44:30.388Z,35.80
2023-01-30T22:47:02.316Z,35.80
2023-01-30T22:49:34.362Z,37.47
2023-01-30T22:52:06.224Z,35.78
2023-01-30T22:54:39.314Z,36.47
2023-01-30T22:57:11.275Z,37.03
2023-01-30T22:59:43.107Z,38.67
2023-01-30T23:02:15.033Z,36.85
2023-01-30T23:04:49.204Z,34.92
2023-01-30T23:07:23.102Z,35.35
2023-01-30T23:09:54.905Z,35.17
2023-01-30T23:12:45.312Z,35.75
2023-01-30T23:15:17.539Z,35.65
2023-01-30T23:18:08.027Z,37.00
2023-01-30T23:20:40.266Z,36.15
2023-01-30T23:23:12.147Z,36.83
2023-01-30T23:25:43.943Z,34.72
2023-01-30T23:28:16.016Z,35.67
2023-01-30T23:30:47.961Z,36.75
2023-01-30T23:33:19.851Z,35.15
2023-01-30T23:35:51.663Z,34.30
2023-01-30T23:38:24.100Z,36.50
2023-01-30T23:41:09.013Z,36.25
2023-01-30T23:43:42.366Z,37.28
2023-01-30T23:46:20.104Z,36.92
2023-01-30T23:48:56.959Z,36.20
2023-01-30T23:51:31.045Z,36.10
2023-01-30T23:54:04.119Z,37.60
2023-01-30T23:56:38.928Z,38.85
2023-01-30T23:59:11.621Z,38.10
